KVEL/VEL METAR and TAF weather

Enter ICAO airport designator
Station Type Date Time Source
KVEL METAR 2021/05/15 00:53 UTC NOAA

KVEL 150053Z AUTO 36006KT 10SM CLR 23/00 A2992 RMK AO2 SLP077 T02330000


Station Type Date Time Source
KVEL Decoded METAR 2021/05/15 00:53 UTC NOAA

VERNAL AIRPORT, UT, United States (KVEL) 40-26N 109-30W 1604M
May 14, 2021 - 08:53 PM EDT / 2021.05.15 0053 UTC
Wind: from the N (360 degrees) at 7 MPH (6 KT):0
Visibility: 10 mile(s):0
Sky conditions: clear
Temperature: 73.9 F (23.3 C)
Dew Point: 32.0 F (0.0 C)
Relative Humidity: 21%
Pressure (altimeter): 29.92 in. Hg (1013 hPa)
ob: KVEL 150053Z AUTO 36006KT 10SM CLR 23/00 A2992 RMK AO2 SLP077 T02330000
cycle: 1

Station Type Date Time Source
KVEL TAF 2021/05/14 18:28 UTC NOAA

TAF KVEL 141726Z 1418/1518 VRB03KT P6SM SCT120
FM142000 25010G20KT P6SM SCT100
FM150300 35010KT P6SM SCT200
FM150900 35006KT P6SM SCT200

Example: see airport list